Observation data for Muleshoe on 01/15/2020      Previous  Date  Next       Current Mesonet Observations  Soil Data  Daily Summary Page  Observations in Plain Language
KMUS 150600Z 23004KT 00/07 A3002 RMK A01 T00-00-72  RH  058%=      5-min Rain = 0
KMUS 150605Z 25005KT M00/M07 A3002 RMK A01 T10031072  RH  060%=      5-min Rain = 0
KMUS 150610Z 26005KT M01/M07 A3002 RMK A01 T10061073  RH  061%=      5-min Rain = 0
KMUS 150615Z 26005KT M01/M07 A3002 RMK A01 T10091074  RH  062%=      5-min Rain = 0
KMUS 150620Z 28005KT M01/M07 A3002 RMK A01 T10121074  RH  063%=      5-min Rain = 0
KMUS 150625Z 28005KT M02/M08 A3002 RMK A01 T10161076  RH  064%=      5-min Rain = 0
KMUS 150630Z 27004KT M02/M08 A3002 RMK A01 T10191076  RH  065%=      5-min Rain = 0
KMUS 150635Z 25004KT M02/M08 A3002 RMK A01 T10181076  RH  065%=      5-min Rain = 0
KMUS 150640Z 26005KT M02/M08 A3002 RMK A01 T10171078  RH  063%=      5-min Rain = 0
KMUS 150645Z 25005KT M02/M08 A3002 RMK A01 T10171076  RH  064%=      5-min Rain = 0
KMUS 150650Z 21003KT M02/M08 A3002 RMK A01 T10181075  RH  065%=      5-min Rain = 0
KMUS 150655Z 21004KT M02/M07 A3002 RMK A01 T10181074  RH  065%=      5-min Rain = 0
KMUS 150700Z 22004KT M02/M07 A3002 RMK A01 T10161074  RH  064%=      5-min Rain = 0
KMUS 150705Z 23004KT M01/M07 A3002 RMK A01 T10141074  RH  064%=      5-min Rain = 0
KMUS 150710Z 24006KT M02/M07 A3002 RMK A01 T10151074  RH  064%=      5-min Rain = 0
KMUS 150715Z 24006KT M01/M07 A3001 RMK A01 T10141072  RH  064%=      5-min Rain = 0
KMUS 150720Z 25006KT M01/M07 A3001 RMK A01 T10091072  RH  062%=      5-min Rain = 0
KMUS 150725Z 23005KT M01/M07 A3001 RMK A01 T10061071  RH  061%=      5-min Rain = 0
KMUS 150730Z 24005KT M01/M07 A3001 RMK A01 T10061073  RH  060%=      5-min Rain = 0
KMUS 150735Z 26007KT M01/M07 A3001 RMK A01 T10051071  RH  061%=      5-min Rain = 0
KMUS 150740Z 27008KT 00/M07 A3001 RMK A01 T00021068  RH  060%=      5-min Rain = 0
KMUS 150745Z 27008KT 01/M07 A3001 RMK A01 T00071066  RH  058%=      5-min Rain = 0
KMUS 150750Z 27007KT 01/M06 A3001 RMK A01 T00101064  RH  058%=      5-min Rain = 0
KMUS 150755Z 27007KT 01/M06 A3001 RMK A01 T00101063  RH  058%=      5-min Rain = 0
KMUS 150800Z 26007KT 01/M06 A3001 RMK A01 T00121063  RH  057%=      5-min Rain = 0
KMUS 150805Z 26007KT 01/M07 A3001 RMK A01 T00141065  RH  056%=      5-min Rain = 0
KMUS 150810Z 26007KT 02/M07 A3001 RMK A01 T00151066  RH  055%=      5-min Rain = 0
KMUS 150815Z 27007KT 01/M07 A3001 RMK A01 T00121065  RH  056%=      5-min Rain = 0
KMUS 150820Z 27008KT 01/M06 A3001 RMK A01 T00101064  RH  058%=      5-min Rain = 0
KMUS 150825Z 27009KT 01/M06 A3001 RMK A01 T00141063  RH  056%=      5-min Rain = 0
KMUS 150830Z 27008KT 02/M06 A3001 RMK A01 T00211064  RH  053%=      5-min Rain = 0
KMUS 150835Z 27008KT 03/M07 A30 RMK A01 T00271065  RH  051%=      5-min Rain = 0
KMUS 150840Z 28009KT 04/M07 A30 RMK A01 T00351069  RH  046%=      5-min Rain = 0
KMUS 150845Z 28009KT 04/M07 A30 RMK A01 T00421073  RH  043%=      5-min Rain = 0
KMUS 150850Z 28008KT 05/M07 A30 RMK A01 T00451074  RH  042%=      5-min Rain = 0
KMUS 150855Z 28008KT 04/M07 A30 RMK A01 T00441072  RH  043%=      5-min Rain = 0
KMUS 150900Z 28008KT 04/M07 A30 RMK A01 T00421071  RH  044%=      5-min Rain = 0
KMUS 150905Z 28008KT 04/M07 A3001 RMK A01 T00401070  RH  045%=      5-min Rain = 0
KMUS 150910Z 27007KT 04/M07 A3001 RMK A01 T00371069  RH  046%=      5-min Rain = 0
KMUS 150915Z 26008KT 04/M07 A3001 RMK A01 T00351067  RH  047%=      5-min Rain = 0
KMUS 150920Z 26008KT 04/M07 A3001 RMK A01 T00351067  RH  047%=      5-min Rain = 0
KMUS 150925Z 26008KT 04/M07 A3001 RMK A01 T00361066  RH  047%=      5-min Rain = 0
KMUS 150930Z 26009KT 04/M07 A3001 RMK A01 T00391067  RH  046%=      5-min Rain = 0
KMUS 150935Z 26009KT 04/M07 A3001 RMK A01 T00411068  RH  045%=      5-min Rain = 0
KMUS 150940Z 26009KT 04/M07 A3001 RMK A01 T00411067  RH  045%=      5-min Rain = 0
KMUS 150945Z 26009KT 04/M07 A30 RMK A01 T00411065  RH  046%=      5-min Rain = 0
KMUS 150950Z 26009KT 04/M07 A30 RMK A01 T00411065  RH  046%=      5-min Rain = 0
KMUS 150955Z 26009KT 04/M07 A3001 RMK A01 T00441066  RH  045%=      5-min Rain = 0
KMUS 151000Z 25009KT 04/M07 A3001 RMK A01 T00441066  RH  045%=      5-min Rain = 0
KMUS 151005Z 24009KT 05/M07 A3001 RMK A01 T00451068  RH  044%=      5-min Rain = 0
KMUS 151010Z 25009KT 05/M07 A3001 RMK A01 T00481070  RH  042%=      5-min Rain = 0
KMUS 151015Z 25010KT 05/M07 A3001 RMK A01 T00521072  RH  040%=      5-min Rain = 0
KMUS 151020Z 26009KT 06/M07 A3001 RMK A01 T00561074  RH  039%=      5-min Rain = 0
KMUS 151025Z 26009KT 06/M08 A3001 RMK A01 T00591076  RH  037%=      5-min Rain = 0
KMUS 151030Z 26009KT 06/M08 A3001 RMK A01 T00631077  RH  036%=      5-min Rain = 0
KMUS 151035Z 26009KT 07/M08 A30 RMK A01 T00651078  RH  035%=      5-min Rain = 0
KMUS 151040Z 27008KT 07/M08 A30 RMK A01 T00651078  RH  035%=      5-min Rain = 0
KMUS 151045Z 27009KT 06/M08 A3001 RMK A01 T00631077  RH  036%=      5-min Rain = 0
KMUS 151050Z 26009KT 06/M08 A3001 RMK A01 T00621077  RH  036%=      5-min Rain = 0
KMUS 151055Z 26009KT 06/M08 A3001 RMK A01 T00611077  RH  036%=      5-min Rain = 0
KMUS 151100Z 26009KT 06/M08 A3001 RMK A01 T00621077  RH  036%=      5-min Rain = 0
KMUS 151105Z 26009KT 06/M08 A3001 RMK A01 T00611075  RH  037%=      5-min Rain = 0
KMUS 151110Z 26008KT 06/M07 A3001 RMK A01 T00601074  RH  037%=      5-min Rain = 0
KMUS 151115Z 26008KT 06/M07 A3001 RMK A01 T00591073  RH  038%=      5-min Rain = 0
KMUS 151120Z 27008KT 06/M07 A3001 RMK A01 T00571071  RH  039%=      5-min Rain = 0
KMUS 151125Z 26008KT 06/M07 A3001 RMK A01 T00551070  RH  040%=      5-min Rain = 0
KMUS 151130Z 26008KT 06/M07 A3001 RMK A01 T00551070  RH  040%=      5-min Rain = 0
KMUS 151135Z 26008KT 05/M07 A3001 RMK A01 T00541069  RH  041%=      5-min Rain = 0
KMUS 151140Z 26008KT 05/M07 A3001 RMK A01 T00541070  RH  040%=      5-min Rain = 0
KMUS 151145Z 26008KT 05/M07 A3001 RMK A01 T00541070  RH  040%=      5-min Rain = 0
KMUS 151150Z 26008KT 05/M07 A3001 RMK A01 T00541070  RH  040%=      5-min Rain = 0
KMUS 151155Z 25008KT 05/M07 A3001 RMK A01 T00541071  RH  040%=      5-min Rain = 0
KMUS 151200Z 25008KT 05/M07 A3001 RMK A01 T00541072  RH  040%=      5-min Rain = 0
KMUS 151205Z 25008KT 05/M07 A3001 RMK A01 T00521073  RH  040%=      5-min Rain = 0
KMUS 151210Z 24008KT 05/M07 A3002 RMK A01 T00501072  RH  041%=      5-min Rain = 0
KMUS 151215Z 24007KT 05/M07 A3002 RMK A01 T00471071  RH  042%=      5-min Rain = 0
KMUS 151220Z 24008KT 05/M07 A3002 RMK A01 T00451070  RH  043%=      5-min Rain = 0
KMUS 151225Z 24008KT 05/M07 A3002 RMK A01 T00451072  RH  042%=      5-min Rain = 0
KMUS 151230Z 24007KT 05/M07 A3002 RMK A01 T00451073  RH  042%=      5-min Rain = 0
KMUS 151235Z 23008KT 04/M07 A3003 RMK A01 T00431074  RH  042%=      5-min Rain = 0
KMUS 151240Z 24008KT 04/M08 A3003 RMK A01 T00421075  RH  042%=      5-min Rain = 0
KMUS 151245Z 23008KT 04/M07 A3003 RMK A01 T00411074  RH  043%=      5-min Rain = 0
KMUS 151250Z 23009KT 04/M08 A3003 RMK A01 T00411075  RH  042%=      5-min Rain = 0
KMUS 151255Z 23008KT 04/M08 A3003 RMK A01 T00421075  RH  042%=      5-min Rain = 0
KMUS 151300Z 23008KT 04/M07 A3003 RMK A01 T00381074  RH  044%=      5-min Rain = 0
KMUS 151305Z 23009KT 04/M07 A3003 RMK A01 T00381073  RH  044%=      5-min Rain = 0
KMUS 151310Z 24009KT 04/M07 A3003 RMK A01 T00411073  RH  043%=      5-min Rain = 0
KMUS 151315Z 24009KT 05/M08 A3004 RMK A01 T00451075  RH  041%=      5-min Rain = 0
KMUS 151320Z 24009KT 05/M08 A3004 RMK A01 T00501078  RH  039%=      5-min Rain = 0
KMUS 151325Z 24010KT 05/M08 A3004 RMK A01 T00541081  RH  037%=      5-min Rain = 0
KMUS 151330Z 24008KT 06/M08 A3004 RMK A01 T00571084  RH  036%=      5-min Rain = 0
KMUS 151335Z 25009KT 06/M09 A3004 RMK A01 T00601085  RH  034%=      5-min Rain = 0
KMUS 151340Z 25009KT 06/M09 A3005 RMK A01 T00631087  RH  033%=      5-min Rain = 0
KMUS 151345Z 25010KT 07/M09 A3005 RMK A01 T00661088  RH  032%=      5-min Rain = 0
KMUS 151350Z 25009KT 07/M09 A3005 RMK A01 T00691089  RH  032%=      5-min Rain = 0
KMUS 151355Z 25009KT 07/M09 A3005 RMK A01 T00711090  RH  031%=      5-min Rain = 0
KMUS 151400Z 25009KT 07/M09 A3005 RMK A01 T00721089  RH  031%=      5-min Rain = 0
KMUS 151405Z 25009KT 07/M09 A3006 RMK A01 T00701087  RH  032%=      5-min Rain = 0
KMUS 151410Z 25010KT 07/M09 A3006 RMK A01 T00681086  RH  032%=      5-min Rain = 0
KMUS 151415Z 26009KT 07/M08 A3006 RMK A01 T00671084  RH  033%=      5-min Rain = 0
KMUS 151420Z 26008KT 07/M08 A3007 RMK A01 T00651083  RH  034%=      5-min Rain = 0
KMUS 151425Z 27007KT 06/M08 A3007 RMK A01 T00641079  RH  035%=      5-min Rain = 0
KMUS 151430Z 27007KT 06/M08 A3007 RMK A01 T00631077  RH  036%=      5-min Rain = 0
KMUS 151435Z 27007KT 06/M07 A3007 RMK A01 T00621074  RH  037%=      5-min Rain = 0
KMUS 151440Z 27006KT 06/M07 A3007 RMK A01 T00611072  RH  038%=      5-min Rain = 0
KMUS 151445Z 28006KT 06/M07 A3007 RMK A01 T00611072  RH  038%=      5-min Rain = 0
KMUS 151450Z 28006KT 06/M07 A3008 RMK A01 T00621071  RH  038%=      5-min Rain = 0
KMUS 151455Z 28006KT 06/M07 A3008 RMK A01 T00631071  RH  038%=      5-min Rain = 0
KMUS 151500Z 28007KT 07/M07 A3008 RMK A01 T00651071  RH  037%=      5-min Rain = 0
KMUS 151505Z 27007KT 07/M07 A3008 RMK A01 T00661071  RH  037%=      5-min Rain = 0
KMUS 151510Z 27008KT 07/M07 A3008 RMK A01 T00671072  RH  036%=      5-min Rain = 0
KMUS 151515Z 27007KT 07/M07 A3008 RMK A01 T00681072  RH  036%=      5-min Rain = 0
KMUS 151520Z 27008KT 07/M07 A3009 RMK A01 T00691072  RH  036%=      5-min Rain = 0
KMUS 151525Z 27008KT 07/M07 A3009 RMK A01 T00701071  RH  036%=      5-min Rain = 0
KMUS 151530Z 28008KT 07/M07 A3009 RMK A01 T00711071  RH  036%=      5-min Rain = 0
KMUS 151535Z 27008KT 07/M07 A3009 RMK A01 T00741070  RH  035%=      5-min Rain = 0
KMUS 151540Z 27007KT 08/M07 A3009 RMK A01 T00761070  RH  035%=      5-min Rain = 0
KMUS 151545Z 27007KT 08/M07 A301 RMK A01 T00791072  RH  033%=      5-min Rain = 0
KMUS 151550Z 27007KT 08/M07 A301 RMK A01 T00831073  RH  032%=      5-min Rain = 0
KMUS 151555Z 26007KT 09/M07 A3011 RMK A01 T00861072  RH  032%=      5-min Rain = 0
KMUS 151600Z 27008KT 09/M08 A3011 RMK A01 T00881077  RH  030%=      5-min Rain = 0
KMUS 151605Z 27008KT 09/M08 A3011 RMK A01 T00901078  RH  030%=      5-min Rain = 0
KMUS 151610Z 28007KT 09/M08 A3012 RMK A01 T00921078  RH  029%=      5-min Rain = 0
KMUS 151615Z 29007KT 09/M08 A3012 RMK A01 T00931077  RH  029%=      5-min Rain = 0
KMUS 151620Z 30006KT 09/M07 A3013 RMK A01 T00931074  RH  030%=      5-min Rain = 0
KMUS 151625Z 35009G14KT 09/M07 A3015 RMK A01 T00921069  RH  031%=      5-min Rain = 0
KMUS 151630Z 00007G14KT 09/M06 A3016 RMK A01 T00881062  RH  034%=      5-min Rain = 0
KMUS 151635Z 29004KT 09/M06 A3015 RMK A01 T00861059  RH  035%=      5-min Rain = 0
KMUS 151640Z 28004KT 09/M06 A3015 RMK A01 T00871058  RH  035%=      5-min Rain = 0
KMUS 151645Z 31005KT 09/M06 A3015 RMK A01 T00891057  RH  035%=      5-min Rain = 0
KMUS 151650Z 35005KT 09/M05 A3016 RMK A01 T00921050  RH  036%=      5-min Rain = 0
KMUS 151655Z 00009G15KT 10/M06 A3017 RMK A01 T00961059  RH  033%=      5-min Rain = 0
KMUS 151700Z 01010KT 10/M07 A3017 RMK A01 T01041067  RH  029%=      5-min Rain = 0
KMUS 151705Z 02011KT 11/M07 A3017 RMK A01 T01051072  RH  028%=      5-min Rain = 0
KMUS 151710Z 02010KT 10/M08 A3017 RMK A01 T01041075  RH  028%=      5-min Rain = 0
KMUS 151715Z 02007KT 10/M07 A3018 RMK A01 T01041073  RH  028%=      5-min Rain = 0
KMUS 151720Z 02005KT 11/M07 A3018 RMK A01 T01051071  RH  028%=      5-min Rain = 0
KMUS 151725Z 01006KT 11/M07 A3018 RMK A01 T01061071  RH  028%=      5-min Rain = 0
KMUS 151730Z 01005KT 11/M07 A3018 RMK A01 T01071070  RH  028%=      5-min Rain = 0
KMUS 151735Z 01006KT 11/M07 A3018 RMK A01 T01091068  RH  028%=      5-min Rain = 0
KMUS 151740Z 01009KT 11/M07 A3018 RMK A01 T01111067  RH  028%=      5-min Rain = 0
KMUS 151745Z 01011G17KT 11/M07 A3019 RMK A01 T01121067  RH  028%=      5-min Rain = 0
KMUS 151750Z 01012KT 11/M07 A3019 RMK A01 T01121066  RH  028%=      5-min Rain = 0
KMUS 151755Z 01012KT 11/M07 A3018 RMK A01 T01101067  RH  028%=      5-min Rain = 0
KMUS 151800Z 02011G16KT 11/M07 A3018 RMK A01 T01081069  RH  028%=      5-min Rain = 0
KMUS 151805Z 02012KT 11/M07 A3019 RMK A01 T01071066  RH  029%=      5-min Rain = 0
KMUS 151810Z 03012KT 11/M07 A3019 RMK A01 T01081066  RH  029%=      5-min Rain = 0
KMUS 151815Z 02011KT 11/M07 A3019 RMK A01 T01081065  RH  029%=      5-min Rain = 0
KMUS 151820Z 03011KT 11/M07 A3019 RMK A01 T01081066  RH  029%=      5-min Rain = 0
KMUS 151825Z 04011KT 11/M07 A3019 RMK A01 T01091065  RH  029%=      5-min Rain = 0
KMUS 151830Z 05013KT 11/M07 A3019 RMK A01 T01051069  RH  029%=      5-min Rain = 0
KMUS 151835Z 04013KT 10/M07 A3018 RMK A01 T01031066  RH  030%=      5-min Rain = 0
KMUS 151840Z 05012KT 10/M06 A3018 RMK A01 T01021063  RH  031%=      5-min Rain = 0
KMUS 151845Z 05013KT 10/M06 A3018 RMK A01 T01041063  RH  030%=      5-min Rain = 0
KMUS 151850Z 05014KT 10/M07 A3018 RMK A01 T01031065  RH  030%=      5-min Rain = 0
KMUS 151855Z 06012G17KT 10/M06 A3017 RMK A01 T01011063  RH  031%=      5-min Rain = 0
KMUS 151900Z 05012KT 10/M06 A3017 RMK A01 T01021062  RH  031%=      5-min Rain = 0
KMUS 151905Z 05014KT 10/M07 A3017 RMK A01 T00991067  RH  030%=      5-min Rain = 0
KMUS 151910Z 05012G17KT 10/M07 A3016 RMK A01 T00981067  RH  031%=      5-min Rain = 0
KMUS 151915Z 03013KT 10/M07 A3016 RMK A01 T00981067  RH  031%=      5-min Rain = 0
KMUS 151920Z 04012KT 10/M07 A3016 RMK A01 T00961068  RH  031%=      5-min Rain = 0
KMUS 151925Z 05010KT 10/M07 A3017 RMK A01 T00961066  RH  031%=      5-min Rain = 0
KMUS 151930Z 05011KT 10/M07 A3017 RMK A01 T00961065  RH  032%=      5-min Rain = 0
KMUS 151935Z 04012G17KT 10/M07 A3016 RMK A01 T00971067  RH  031%=      5-min Rain = 0
KMUS 151940Z 05011KT 10/M07 A3017 RMK A01 T00961068  RH  031%=      5-min Rain = 0
KMUS 151945Z 04012KT 10/M07 A3016 RMK A01 T00961070  RH  030%=      5-min Rain = 0
KMUS 151950Z 04011G16KT 10/M07 A3016 RMK A01 T00961070  RH  030%=      5-min Rain = 0
KMUS 151955Z 06012KT 10/M07 A3015 RMK A01 T00961071  RH  030%=      5-min Rain = 0
KMUS 152000Z 05013KT 10/M07 A3015 RMK A01 T00951071  RH  030%=      5-min Rain = 0
KMUS 152005Z 05013KT 10/M07 A3014 RMK A01 T00961070  RH  030%=      5-min Rain = 0
KMUS 152010Z 06010G15KT 10/M07 A3016 RMK A01 T00951074  RH  030%=      5-min Rain = 0
KMUS 152015Z 05009KT 10/M07 A3016 RMK A01 T00961072  RH  030%=      5-min Rain = 0
KMUS 152020Z 06011KT 10/M07 A3015 RMK A01 T00981071  RH  030%=      5-min Rain = 0
KMUS 152025Z 06012KT 10/M07 A3015 RMK A01 T00971073  RH  029%=      5-min Rain = 0
KMUS 152030Z 06010KT 10/M07 A3016 RMK A01 T00981072  RH  030%=      5-min Rain = 0
KMUS 152035Z 04009KT 10/M07 A3016 RMK A01 T00991072  RH  029%=      5-min Rain = 0
KMUS 152040Z 05011KT 10/M07 A3015 RMK A01 T00991071  RH  030%=      5-min Rain = 0
KMUS 152045Z 05012KT 10/M07 A3015 RMK A01 T00981073  RH  029%=      5-min Rain = 0
KMUS 152050Z 05011KT 10/M07 A3015 RMK A01 T00971073  RH  029%=      5-min Rain = 0
KMUS 152055Z 05012KT 10/M07 A3014 RMK A01 T00961072  RH  030%=      5-min Rain = 0
KMUS 152100Z 05012KT 10/M07 A3015 RMK A01 T00971072  RH  030%=      5-min Rain = 0
KMUS 152105Z 06011KT 10/M07 A3015 RMK A01 T00981071  RH  030%=      5-min Rain = 0
KMUS 152110Z 05012KT 10/M07 A3015 RMK A01 T01001069  RH  030%=      5-min Rain = 0
KMUS 152115Z 06011KT 10/M07 A3014 RMK A01 T01001069  RH  030%=      5-min Rain = 0
KMUS 152120Z 04010KT 10/M07 A3015 RMK A01 T00991069  RH  030%=      5-min Rain = 0
KMUS 152125Z 04010KT 10/M07 A3015 RMK A01 T00981070  RH  030%=      5-min Rain = 0
KMUS 152130Z 04010KT 10/M07 A3016 RMK A01 T00971071  RH  030%=      5-min Rain = 0
KMUS 152135Z 04009KT 10/M07 A3016 RMK A01 T00981070  RH  030%=      5-min Rain = 0
KMUS 152140Z 05009KT 10/M07 A3016 RMK A01 T00991070  RH  030%=      5-min Rain = 0
KMUS 152145Z 04009KT 10/M07 A3016 RMK A01 T00991070  RH  030%=      5-min Rain = 0
KMUS 152150Z 05009KT 10/M07 A3016 RMK A01 T00981069  RH  030%=      5-min Rain = 0
KMUS 152155Z 05009KT 10/M07 A3017 RMK A01 T00981069  RH  030%=      5-min Rain = 0
KMUS 152200Z 05010KT 10/M07 A3016 RMK A01 T00961070  RH  030%=      5-min Rain = 0
KMUS 152205Z 05010KT 10/M07 A3016 RMK A01 T00961069  RH  030%=      5-min Rain = 0
KMUS 152210Z 06009KT 10/M07 A3017 RMK A01 T00961069  RH  031%=      5-min Rain = 0
KMUS 152215Z 07009KT 10/M07 A3018 RMK A01 T00951068  RH  031%=      5-min Rain = 0
KMUS 152220Z 06008KT 10/M07 A3018 RMK A01 T00951067  RH  031%=      5-min Rain = 0
KMUS 152225Z 06009KT 10/M07 A3018 RMK A01 T00951067  RH  031%=      5-min Rain = 0
KMUS 152230Z 06009KT 09/M07 A3018 RMK A01 T00941068  RH  031%=      5-min Rain = 0
KMUS 152235Z 05009KT 09/M07 A3017 RMK A01 T00941065  RH  032%=      5-min Rain = 0
KMUS 152240Z 06009KT 09/M07 A3018 RMK A01 T00931065  RH  032%=      5-min Rain = 0
KMUS 152245Z 06008KT 09/M06 A3018 RMK A01 T00921064  RH  033%=      5-min Rain = 0
KMUS 152250Z 06009KT 09/M07 A3018 RMK A01 T00911065  RH  033%=      5-min Rain = 0
KMUS 152255Z 07009KT 09/M06 A3018 RMK A01 T00901064  RH  033%=      5-min Rain = 0
KMUS 152300Z 06009KT 09/M07 A3018 RMK A01 T00891065  RH  033%=      5-min Rain = 0
KMUS 152305Z 05010KT 09/M06 A3018 RMK A01 T00881064  RH  034%=      5-min Rain = 0
KMUS 152310Z 05010KT 09/M07 A3018 RMK A01 T00861066  RH  033%=      5-min Rain = 0
KMUS 152315Z 07008KT 09/M06 A3019 RMK A01 T00861064  RH  034%=      5-min Rain = 0
KMUS 152320Z 08008KT 09/M07 A302 RMK A01 T00851067  RH  033%=      5-min Rain = 0
KMUS 152325Z 07008KT 08/M07 A302 RMK A01 T00841067  RH  034%=      5-min Rain = 0
KMUS 152330Z 07007KT 08/M07 A302 RMK A01 T00831065  RH  034%=      5-min Rain = 0
KMUS 152335Z 08007KT 08/M06 A3021 RMK A01 T00821064  RH  035%=      5-min Rain = 0
KMUS 152340Z 08005KT 08/M06 A3022 RMK A01 T00801063  RH  036%=      5-min Rain = 0
KMUS 152345Z 08006KT 08/M06 A3021 RMK A01 T00791062  RH  036%=      5-min Rain = 0
KMUS 152350Z 07006KT 08/M06 A3022 RMK A01 T00771061  RH  037%=      5-min Rain = 0
KMUS 152355Z 08006KT 08/M06 A3022 RMK A01 T00761061  RH  037%=      5-min Rain = 0
KMUS 160000Z 08006KT 07/M06 A3022 RMK A01 T00731059  RH  039%=      5-min Rain = 0
KMUS 160005Z 08006KT 07/M06 A3022 RMK A01 T00711058  RH  040%=      5-min Rain = 0
KMUS 160010Z 08006KT 07/M06 A3022 RMK A01 T00701058  RH  040%=      5-min Rain = 0
KMUS 160015Z 08006KT 07/M06 A3022 RMK A01 T00681057  RH  041%=      5-min Rain = 0
KMUS 160020Z 07005KT 07/M06 A3023 RMK A01 T00671056  RH  041%=      5-min Rain = 0
KMUS 160025Z 05006KT 07/M06 A3022 RMK A01 T00661055  RH  042%=      5-min Rain = 0
KMUS 160030Z 04006KT 06/M05 A3023 RMK A01 T00631053  RH  043%=      5-min Rain = 0
KMUS 160035Z 04007KT 06/M05 A3023 RMK A01 T00621052  RH  044%=      5-min Rain = 0
KMUS 160040Z 04007KT 07/M05 A3023 RMK A01 T00661052  RH  043%=      5-min Rain = 0
KMUS 160045Z 04008KT 07/M05 A3023 RMK A01 T00671051  RH  043%=      5-min Rain = 0
KMUS 160050Z 03008KT 07/M05 A3023 RMK A01 T00671053  RH  042%=      5-min Rain = 0
KMUS 160055Z 03008KT 07/M05 A3023 RMK A01 T00661053  RH  042%=      5-min Rain = 0
KMUS 160100Z 03008KT 06/M05 A3024 RMK A01 T00641053  RH  043%=      5-min Rain = 0
KMUS 160105Z 03010KT 06/M06 A3024 RMK A01 T00631055  RH  043%=      5-min Rain = 0
KMUS 160110Z 04009KT 06/M06 A3025 RMK A01 T00621056  RH  043%=      5-min Rain = 0
KMUS 160115Z 04009KT 06/M06 A3025 RMK A01 T00611055  RH  043%=      5-min Rain = 0
KMUS 160120Z 03009KT 06/M06 A3025 RMK A01 T00601055  RH  043%=      5-min Rain = 0
KMUS 160125Z 03009KT 06/M06 A3026 RMK A01 T00591055  RH  044%=      5-min Rain = 0
KMUS 160130Z 03009KT 06/M06 A3026 RMK A01 T00581055  RH  044%=      5-min Rain = 0
KMUS 160135Z 03008KT 06/M06 A3026 RMK A01 T00581055  RH  044%=      5-min Rain = 0
KMUS 160140Z 03008KT 06/M06 A3026 RMK A01 T00581055  RH  044%=      5-min Rain = 0
KMUS 160145Z 03007KT 06/M05 A3026 RMK A01 T00571054  RH  045%=      5-min Rain = 0
KMUS 160150Z 04009KT 06/M05 A3026 RMK A01 T00561054  RH  045%=      5-min Rain = 0
KMUS 160155Z 04009KT 06/M05 A3026 RMK A01 T00561054  RH  045%=      5-min Rain = 0
KMUS 160200Z 04008KT 06/M05 A3026 RMK A01 T00551053  RH  046%=      5-min Rain = 0
KMUS 160205Z 04009KT 05/M05 A3026 RMK A01 T00541053  RH  046%=      5-min Rain = 0
KMUS 160210Z 04009KT 05/M05 A3026 RMK A01 T00541053  RH  046%=      5-min Rain = 0
KMUS 160215Z 03010KT 05/M05 A3026 RMK A01 T00541054  RH  046%=      5-min Rain = 0
KMUS 160220Z 03010KT 05/M05 A3027 RMK A01 T00531053  RH  046%=      5-min Rain = 0
KMUS 160225Z 03009KT 05/M05 A3027 RMK A01 T00531053  RH  046%=      5-min Rain = 0
KMUS 160230Z 04009KT 05/M05 A3027 RMK A01 T00531053  RH  047%=      5-min Rain = 0
KMUS 160235Z 04010KT 05/M05 A3027 RMK A01 T00521053  RH  047%=      5-min Rain = 0
KMUS 160240Z 04010KT 05/M05 A3027 RMK A01 T00521053  RH  047%=      5-min Rain = 0
KMUS 160245Z 04009KT 05/M05 A3027 RMK A01 T00511052  RH  047%=      5-min Rain = 0
KMUS 160250Z 04009KT 05/M05 A3028 RMK A01 T00511053  RH  047%=      5-min Rain = 0
KMUS 160255Z 04009KT 05/M05 A3028 RMK A01 T00511052  RH  047%=      5-min Rain = 0
KMUS 160300Z 04009KT 05/M05 A3028 RMK A01 T00511052  RH  047%=      5-min Rain = 0
KMUS 160305Z 04009KT 05/M05 A3029 RMK A01 T00511052  RH  048%=      5-min Rain = 0
KMUS 160310Z 04009KT 05/M05 A3028 RMK A01 T00511052  RH  047%=      5-min Rain = 0
KMUS 160315Z 04009KT 05/M05 A3029 RMK A01 T00511052  RH  047%=      5-min Rain = 0
KMUS 160320Z 04010KT 05/M05 A3029 RMK A01 T00521053  RH  047%=      5-min Rain = 0
KMUS 160325Z 04010KT 05/M05 A3029 RMK A01 T00521052  RH  047%=      5-min Rain = 0
KMUS 160330Z 04011KT 05/M05 A3029 RMK A01 T00521052  RH  047%=      5-min Rain = 0
KMUS 160335Z 04009KT 05/M05 A303 RMK A01 T00521052  RH  047%=      5-min Rain = 0
KMUS 160340Z 03008G13KT 05/M05 A303 RMK A01 T00511052  RH  047%=      5-min Rain = 0
KMUS 160345Z 03008KT 05/M05 A3031 RMK A01 T00511052  RH  047%=      5-min Rain = 0
KMUS 160350Z 03007KT 05/M05 A3031 RMK A01 T00511051  RH  048%=      5-min Rain = 0
KMUS 160355Z 03008KT 05/M05 A3031 RMK A01 T00501050  RH  048%=      5-min Rain = 0
KMUS 160400Z 03008KT 05/M05 A3031 RMK A01 T00491050  RH  049%=      5-min Rain = 0
KMUS 160405Z 04009KT 05/M05 A3031 RMK A01 T00501050  RH  049%=      5-min Rain = 0
KMUS 160410Z 05009KT 05/M05 A3032 RMK A01 T00491050  RH  049%=      5-min Rain = 0
KMUS 160415Z 05008KT 05/M05 A3032 RMK A01 T00491049  RH  049%=      5-min Rain = 0
KMUS 160420Z 05009KT 05/M05 A3032 RMK A01 T00481048  RH  050%=      5-min Rain = 0
KMUS 160425Z 04009KT 05/M05 A3032 RMK A01 T00481048  RH  050%=      5-min Rain = 0
KMUS 160430Z 04008KT 05/M05 A3032 RMK A01 T00481047  RH  050%=      5-min Rain = 0
KMUS 160435Z 05009KT 05/M05 A3033 RMK A01 T00481048  RH  050%=      5-min Rain = 0
KMUS 160440Z 05009KT 05/M05 A3033 RMK A01 T00481050  RH  049%=      5-min Rain = 0
KMUS 160445Z 05009KT 05/M05 A3033 RMK A01 T00481050  RH  049%=      5-min Rain = 0
KMUS 160450Z 07008KT 05/M05 A3034 RMK A01 T00471050  RH  049%=      5-min Rain = 0
KMUS 160455Z 08007KT 05/M05 A3035 RMK A01 T00471051  RH  049%=      5-min Rain = 0
KMUS 160500Z 06009KT 05/M05 A3034 RMK A01 T00461051  RH  050%=      5-min Rain = 0
KMUS 160505Z 05009KT 05/M05 A3034 RMK A01 T00461051  RH  049%=      5-min Rain = 0
KMUS 160510Z 06009KT 05/M05 A3034 RMK A01 T00461052  RH  049%=      5-min Rain = 0
KMUS 160515Z 06010KT 05/M05 A3034 RMK A01 T00461054  RH  049%=      5-min Rain = 0
KMUS 160520Z 06009KT 05/M05 A3035 RMK A01 T00461054  RH  048%=      5-min Rain = 0
KMUS 160525Z 06009KT 05/M06 A3035 RMK A01 T00461055  RH  048%=      5-min Rain = 0
KMUS 160530Z 05008KT 05/M06 A3035 RMK A01 T00451055  RH  048%=      5-min Rain = 0
KMUS 160535Z 04007KT 04/M05 A3036 RMK A01 T00441054  RH  049%=      5-min Rain = 0
KMUS 160540Z 04007KT 05/M06 A3036 RMK A01 T00451055  RH  049%=      5-min Rain = 0
KMUS 160545Z 05008KT 04/M05 A3037 RMK A01 T00441054  RH  049%=      5-min Rain = 0
KMUS 160550Z 05009KT 04/M06 A3037 RMK A01 T00441055  RH  049%=      5-min Rain = 0
KMUS 160555Z 05008KT 04/M05 A3037 RMK A01 T00441054  RH  049%=      5-min Rain = 0

Page generated in 0.0193 seconds.